Flight Track Log - Related Links

Times and Time Zones

All times are in EDT time to prevent confusion due to time zone crossing. See the N845AE flight status page for this flight to view local times or setup timezone preferences in your user account.

Time Position Orientation Groundspeed Altitude Reporting Facility
EDT Latitude Longitude Course Direction KTS MPH feet Rate Location/Type
Sun 01:47:08 PM 32.9000 -97.0333 356° North 151 174 1,300  Level Dallas / Fort Worth TRACON
Sun 01:48:15 PM 32.9667 -97.0333 360° North 203 234 3,800 2,239 Climbing Dallas / Fort Worth TRACON
Sun 01:49:00 PM 32.8380 -96.8024 10° North  Level FlightAware Approximate
Sun 01:50:00 PM 32.9533 -96.8000 North  Level FlightAware Approximate
Sun 01:50:29 PM 33.1042 -97.0142 North 234 269 8,800  Level Fort Worth Center
Sun 01:51:00 PM 33.0687 -96.8002 356° North  Level FlightAware Approximate
Sun 01:51:28 PM 33.1644 -96.9792 26° Northeast 251 289 10,400  Level Fort Worth Center
Sun 01:52:00 PM 33.1839 -96.8098 356° North  Level FlightAware Approximate
Sun 01:52:28 PM 33.2500 -96.9342 24° Northeast 286 329 11,600  Level Fort Worth Center
Sun 01:53:28 PM 33.3375 -96.8889 23° Northeast 318 366 12,700 1,250 Climbing Fort Worth Center
Sun 01:54:28 PM 33.4125 -96.8461 25° Northeast 334 384 14,100 1,488 Climbing Fort Worth Center
Sun 01:55:29 PM 33.5061 -96.7881 27° Northeast 339 390 15,700 1,400 Climbing Fort Worth Center
Sun 01:56:28 PM 33.5850 -96.7403 27° Northeast 339 390 16,900 1,261 Climbing Fort Worth Center
Sun 01:57:28 PM 33.6786 -96.6797 28° Northeast 344 396 18,200 1,190 Climbing Fort Worth Center
Sun 01:58:29 PM 33.7597 -96.6289 28° Northeast 344 396 19,300 1,200 Climbing Fort Worth Center
Sun 01:59:28 PM 33.8575 -96.5631 29° Northeast 349 402 20,600 1,412 Climbing Fort Worth Center
Sun 02:00:28 PM 33.9489 -96.5097 26° Northeast 354 407 22,100 1,200 Climbing Fort Worth Center
Sun 02:01:28 PM 34.0467 -96.4708 18° North 360 414 23,000 446 Climbing Fort Worth Center
Sun 02:02:29 PM 34.1383 -96.4372 17° North 360 414 23,000  Level Fort Worth Center
Sun 02:03:28 PM 34.2400 -96.3608 32° Northeast 392 451 23,000 700 Level Fort Worth Center
Sun 02:04:29 PM 34.3392 -96.2717 37° Northeast 420 483 24,400 1,388 Climbing Fort Worth Center
Sun 02:05:29 PM 34.4344 -96.1897 35° Northeast 425 489 25,800 1,350 Climbing Fort Worth Center
Sun 02:06:29 PM 34.5275 -96.1103 35° Northeast 418 481 27,100 1,300 Climbing Fort Worth Center
Sun 02:07:29 PM 34.6186 -96.0283 36° Northeast 413 475 28,400 1,450 Climbing Fort Worth Center
Sun 02:08:29 PM 34.7197 -95.9356 37° Northeast 408 470 30,000 1,462 Climbing Fort Worth Center
Sun 02:09:28 PM 34.8125 -95.8531 36° Northeast 403 464 31,300 1,250 Climbing Fort Worth Center
Sun 02:10:29 PM 34.8972 -95.7831 34° Northeast 403 464 32,500 1,190 Climbing Fort Worth Center
Sun 02:11:29 PM 34.9900 -95.7003 36° Northeast 408 470 33,700 1,100 Climbing Fort Worth Center
Sun 02:12:29 PM 35.0806 -95.6147 38° Northeast 413 475 34,700 900 Climbing Fort Worth Center
Sun 02:13:29 PM 35.1731 -95.5239 39° Northeast 413 475 35,500 807 Climbing Fort Worth Center
Sun 02:15:20 PM 35.3494 -95.3539 38° Northeast 428 493 37,000 526 Climbing Memphis Center
Sun 02:16:20 PM 35.4469 -95.2606 38° Northeast 434 499 37,000  Level Memphis Center
Sun 02:17:20 PM 35.5511 -95.1594 38° Northeast 452 520 37,000  Level Memphis Center
Sun 02:18:20 PM 35.6572 -95.0556 38° Northeast 466 536 37,000  Level Memphis Center
Sun 02:19:20 PM 35.7592 -94.9514 40° Northeast 471 542 37,000  Level Memphis Center
Sun 02:20:20 PM 35.8631 -94.8472 39° Northeast 471 542 37,000  Level Memphis Center
Sun 02:21:20 PM 35.9667 -94.7450 39° Northeast 471 542 37,000  Level Memphis Center
Sun 02:22:20 PM 36.0683 -94.6428 39° Northeast 466 536 37,000 -259 Level Memphis Center
Sun 02:23:39 PM 36.2111 -94.5022 38° Northeast 475 547 36,400 -553 Descending Kansas City Center
Sun 02:24:41 PM 36.3153 -94.3981 39° Northeast 477 549 35,700 -677 Descending Kansas City Center
Sun 02:25:43 PM 36.4192 -94.2925 39° Northeast 480 552 35,000 -339 Descending Kansas City Center
Sun 02:26:45 PM 36.5219 -94.1894 39° Northeast 480 552 35,000  Level Kansas City Center
Sun 02:27:47 PM 36.6442 -94.0664 39° Northeast 475 547 35,000  Level Kansas City Center
Sun 02:28:49 PM 36.7439 -93.9653 39° Northeast 469 540 35,000  Level Kansas City Center
Sun 02:29:51 PM 36.8414 -93.8653 39° Northeast 463 533 35,000  Level Kansas City Center
Sun 02:30:53 PM 36.9414 -93.7628 39° Northeast 451 519 35,000  Level Kansas City Center
Sun 02:31:55 PM 37.0361 -93.6625 40° Northeast 446 513 35,000  Level Kansas City Center
Sun 02:32:57 PM 37.1322 -93.5644 39° Northeast 444 511 35,000  Level Kansas City Center
Sun 02:33:59 PM 37.2292 -93.4658 39° Northeast 446 513 35,000 -581 Level Kansas City Center
Sun 02:35:01 PM 37.3286 -93.3633 39° Northeast 455 524 33,800 -1,452 Descending Kansas City Center
Sun 02:36:03 PM 37.4575 -93.2558 33° Northeast 458 527 32,000 -1,548 Descending Kansas City Center
Sun 02:37:05 PM 37.5681 -93.1744 30° Northeast 458 527 30,600 -1,403 Descending Kansas City Center
Sun 02:38:07 PM 37.6764 -93.0933 31° Northeast 454 522 29,100 -1,452 Descending Kansas City Center
Sun 02:39:09 PM 37.7833 -93.0125 31° Northeast 446 513 27,600 -2,032 Descending Kansas City Center
Sun 02:40:11 PM 37.8886 -92.9322 31° Northeast 440 506 24,900 -2,903 Descending Kansas City Center
Sun 02:41:13 PM 37.9925 -92.8553 30° Northeast 431 496 21,600 -2,952 Descending Kansas City Center
Sun 02:42:15 PM 38.0883 -92.7819 31° Northeast 408 470 18,800 -2,806 Descending Kansas City Center
Sun 02:43:17 PM 38.1803 -92.7108 31° Northeast 383 441 15,800 -2,855 Descending Kansas City Center
Sun 02:44:19 PM 38.2672 -92.6458 30° Northeast 373 429 12,900 -2,419 Descending Kansas City Center
Sun 02:45:21 PM 38.3664 -92.5683 31° Northeast 357 411 10,800 -1,500 Descending Kansas City Center
Sun 02:46:23 PM 38.4319 -92.5106 35° Northeast 313 360 9,800 -1,452 Descending Kansas City Center
Sun 02:47:25 PM 38.4833 -92.4350 49° Northeast 288 331 7,800 -1,790 Descending Kansas City Center
Sun 02:48:27 PM 38.5306 -92.3608 51° Northeast 273 314 6,100 -1,597 Descending Kansas City Center
Sun 02:49:29 PM 38.5956 -92.3294 21° North 255 293 4,500 -1,548 Descending Kansas City Center

Login

Don't have an account? Register now (free) for customized features, flight alerts, and more!